Time;durP1;ratioP1;P1;durP2;ratioP2;P2;SDS_P1;SDS_P2;PMS_P1;PMS_P2;Temp;Humidity;BMP_temperature;BMP_pressure;BME280_temperature;BME280_humidity;BME280_pressure;Samples;Min_cycle;Max_cycle;Signal;HPM_P1;HPM_P2
2023/12/01 00:01:17;;;;;;;0.90;0.90;;;1.90;99.90;;;;;;5049593;28;20175;-88
2023/12/01 00:03:43;;;;;;;0.80;0.80;;;1.80;99.90;;;;;;5054106;28;20309;-89
2023/12/01 00:06:08;;;;;;;0.90;0.90;;;1.80;99.90;;;;;;5068862;28;20206;-86
2023/12/01 00:08:34;;;;;;;0.80;0.80;;;1.90;99.90;;;;;;5070108;28;20584;-88
2023/12/01 00:11:00;;;;;;;0.80;0.80;;;1.90;99.90;;;;;;5057876;28;20172;-89
2023/12/01 00:13:25;;;;;;;0.80;0.80;;;1.90;99.90;;;;;;5051020;28;20215;-89
2023/12/01 00:15:51;;;;;;;0.70;0.70;;;1.90;99.90;;;;;;5050218;28;20200;-88
2023/12/01 00:18:17;;;;;;;0.73;0.73;;;1.90;99.90;;;;;;5050837;28;20245;-89
2023/12/01 00:20:43;;;;;;;0.80;0.80;;;1.90;99.90;;;;;;5050915;28;20172;-87
2023/12/01 00:23:09;;;;;;;0.87;0.87;;;1.90;99.90;;;;;;5069115;28;20194;-89
2023/12/01 00:25:35;;;;;;;1.00;1.00;;;1.90;99.90;;;;;;5070196;28;20191;-89
2023/12/01 00:28:00;;;;;;;0.80;0.80;;;1.90;99.90;;;;;;5070050;28;20251;-88
2023/12/01 00:30:29;;;;;;;0.90;0.90;;;1.90;99.90;;;;;;5060988;28;20176;-88
2023/12/01 00:32:55;;;;;;;0.70;0.70;;;1.90;99.90;;;;;;5050815;28;20199;-88
2023/12/01 00:35:21;;;;;;;0.70;0.70;;;2.00;99.90;;;;;;5050208;28;20192;-88
2023/12/01 00:37:46;;;;;;;0.73;0.73;;;1.90;99.90;;;;;;5050786;28;20179;-88
2023/12/01 00:40:12;;;;;;;0.80;0.80;;;2.00;99.90;;;;;;5050246;28;20180;-88
2023/12/01 00:42:38;;;;;;;0.70;0.70;;;1.90;99.90;;;;;;5050527;28;20186;-89
2023/12/01 00:45:05;;;;;;;0.70;0.70;;;1.90;99.90;;;;;;5049651;28;20589;-89
2023/12/01 00:47:31;;;;;;;0.80;0.80;;;2.00;99.90;;;;;;5050905;28;20218;-89
2023/12/01 00:49:57;;;;;;;0.80;0.80;;;2.30;99.90;;;;;;5050684;28;20164;-88
2023/12/01 00:52:22;;;;;;;0.87;0.87;;;2.00;99.90;;;;;;5048446;28;20211;-88
2023/12/01 00:54:48;;;;;;;0.80;0.80;;;2.00;99.90;;;;;;5049741;28;20172;-88
2023/12/01 00:57:13;;;;;;;0.80;0.80;;;2.30;99.90;;;;;;5049650;28;20203;-89
2023/12/01 00:59:39;;;;;;;0.90;0.90;;;2.00;99.90;;;;;;5050285;28;20214;-87
2023/12/01 01:02:05;;;;;;;0.80;0.80;;;2.10;99.90;;;;;;5050862;28;20168;-89
2023/12/01 01:04:30;;;;;;;0.80;0.80;;;2.10;99.90;;;;;;5063814;28;20183;-88
2023/12/01 01:06:56;;;;;;;0.80;0.80;;;2.10;99.90;;;;;;5075149;28;20190;-88
2023/12/01 01:09:21;;;;;;;0.70;0.70;;;2.00;99.90;;;;;;5077102;28;20235;-87
2023/12/01 01:11:47;;;;;;;0.73;0.73;;;2.00;99.90;;;;;;5071782;28;20202;-89
2023/12/01 01:14:12;;;;;;;0.80;0.80;;;2.10;99.90;;;;;;5068066;28;20183;-89
2023/12/01 01:16:38;;;;;;;0.77;0.77;;;2.10;99.90;;;;;;5072387;28;20193;-86
2023/12/01 01:19:04;;;;;;;0.70;0.70;;;2.00;99.90;;;;;;5077360;28;20163;-86
2023/12/01 01:21:29;;;;;;;0.90;0.90;;;2.00;99.90;;;;;;5077392;28;20178;-86
2023/12/01 01:23:55;;;;;;;0.80;0.80;;;2.00;99.90;;;;;;5077110;28;20197;-88
2023/12/01 01:26:21;;;;;;;0.80;0.80;;;2.00;99.90;;;;;;5076709;28;20196;-87
2023/12/01 01:28:47;;;;;;;0.70;0.70;;;1.90;99.90;;;;;;5076589;28;20210;-87
2023/12/01 01:31:13;;;;;;;0.90;0.90;;;2.00;99.90;;;;;;5064351;28;20207;-89
2023/12/01 01:33:38;;;;;;;0.80;0.80;;;2.00;99.90;;;;;;5056889;28;20644;-90
2023/12/01 01:36:04;;;;;;;0.93;0.93;;;2.00;99.90;;;;;;5057519;28;20195;-90
2023/12/01 01:38:30;;;;;;;0.70;0.70;;;2.00;99.90;;;;;;5056302;28;20270;-91
2023/12/01 01:40:55;;;;;;;0.80;0.80;;;2.00;99.90;;;;;;5057500;28;20680;-90
2023/12/01 01:43:24;;;;;;;0.80;0.80;;;1.90;99.90;;;;;;5057499;28;20569;-91
2023/12/01 01:46:11;;;;;;;0.70;0.70;;;1.80;99.90;;;;;;5057742;28;20190;-91
2023/12/01 01:48:38;;;;;;;0.80;0.80;;;1.70;99.90;;;;;;5063714;28;20294;-90
2023/12/01 01:51:09;;;;;;;0.80;0.80;;;1.70;99.90;;;;;;5057934;28;20175;-91
2023/12/01 01:53:37;;;;;;;0.80;0.80;;;1.70;99.90;;;;;;5057691;28;20206;-92
2023/12/01 01:56:03;;;;;;;0.80;0.80;;;1.70;99.90;;;;;;5058638;28;20203;-91
2023/12/01 01:58:29;;;;;;;0.70;0.70;;;1.70;99.90;;;;;;5057001;28;20568;-91
2023/12/01 02:00:55;;;;;;;0.90;0.90;;;1.60;99.90;;;;;;5058061;28;20168;-91
2023/12/01 02:03:21;;;;;;;0.80;0.80;;;1.50;99.90;;;;;;5055352;28;20221;-91
2023/12/01 02:05:47;;;;;;;0.90;0.90;;;1.60;99.90;;;;;;5055866;28;20196;-92
2023/12/01 02:08:26;;;;;;;0.80;0.80;;;1.50;99.90;;;;;;5056019;28;20286;-91
2023/12/01 02:10:52;;;;;;;0.80;0.80;;;1.50;99.90;;;;;;5056612;28;20367;-90
2023/12/01 02:13:18;;;;;;;0.80;0.80;;;1.50;99.90;;;;;;5056389;28;20178;-92
2023/12/01 02:15:44;;;;;;;0.80;0.80;;;1.50;99.90;;;;;;5055581;28;20199;-91
2023/12/01 02:18:22;;;;;;;0.80;0.80;;;1.50;99.90;;;;;;5054879;28;20248;-91
2023/12/01 02:20:49;;;;;;;0.80;0.80;;;1.60;99.90;;;;;;5054612;28;20177;-90
2023/12/01 02:23:14;;;;;;;0.90;0.90;;;1.40;99.90;;;;;;5055922;28;20190;-90
2023/12/01 02:25:40;;;;;;;0.90;0.90;;;1.40;99.90;;;;;;5056496;28;20240;-91
2023/12/01 02:28:05;;;;;;;0.80;0.80;;;1.40;99.90;;;;;;5056037;28;20641;-90
2023/12/01 02:30:31;;;;;;;0.80;0.80;;;1.40;99.90;;;;;;5058329;28;20228;-90
2023/12/01 02:32:57;;;;;;;0.90;0.90;;;1.90;99.90;;;;;;5056417;28;20262;-90
2023/12/01 02:35:29;;;;;;;0.90;0.90;;;1.40;99.90;;;;;;5055357;28;20753;-91
2023/12/01 02:37:55;;;;;;;0.80;0.80;;;1.30;99.90;;;;;;5056063;28;20249;-90
2023/12/01 02:40:22;;;;;;;0.90;0.90;;;1.30;99.90;;;;;;5056020;28;20724;-89
2023/12/01 02:42:49;;;;;;;0.80;0.80;;;1.20;99.90;;;;;;5057143;28;20179;-90
2023/12/01 02:45:16;;;;;;;0.90;0.90;;;1.20;99.90;;;;;;5055636;28;20179;-90
2023/12/01 02:47:45;;;;;;;0.90;0.90;;;1.30;99.90;;;;;;5056400;28;20302;-90
2023/12/01 02:50:12;;;;;;;0.90;0.90;;;1.20;99.90;;;;;;5056380;28;20536;-90
2023/12/01 02:52:38;;;;;;;0.83;0.83;;;1.20;99.90;;;;;;5057418;28;20190;-90
2023/12/01 02:55:04;;;;;;;0.90;0.90;;;1.20;99.90;;;;;;5057741;28;20168;-90
2023/12/01 02:57:30;;;;;;;0.83;0.83;;;1.40;99.90;;;;;;5068979;28;20182;-89
2023/12/01 02:59:55;;;;;;;0.87;0.87;;;1.10;99.90;;;;;;5078177;28;20175;-89
2023/12/01 03:02:28;;;;;;;0.90;0.90;;;1.10;99.90;;;;;;5076702;28;20179;-89
2023/12/01 03:04:54;;;;;;;0.80;0.80;;;1.10;99.90;;;;;;5056540;28;20667;-90
2023/12/01 03:07:19;;;;;;;0.87;0.87;;;1.10;99.90;;;;;;5056670;28;20211;-90
2023/12/01 03:09:45;;;;;;;0.90;0.90;;;1.10;99.90;;;;;;5056975;28;20186;-90
2023/12/01 03:12:10;;;;;;;0.80;0.80;;;1.10;99.90;;;;;;5057164;28;20367;-90
2023/12/01 03:14:37;;;;;;;0.80;0.80;;;1.10;99.90;;;;;;5062847;28;20254;-90
2023/12/01 03:17:02;;;;;;;0.87;0.87;;;1.10;99.90;;;;;;5066398;28;20201;-90
2023/12/01 03:19:28;;;;;;;0.90;0.90;;;1.10;99.90;;;;;;5064922;28;20663;-90
2023/12/01 03:21:54;;;;;;;0.80;0.80;;;1.20;99.90;;;;;;5065249;28;20228;-89
2023/12/01 03:24:19;;;;;;;0.80;0.80;;;1.10;99.90;;;;;;5067829;28;20189;-90
2023/12/01 03:26:45;;;;;;;0.93;0.93;;;1.10;99.90;;;;;;5068767;28;20206;-89
2023/12/01 03:29:10;;;;;;;0.80;0.80;;;1.10;99.90;;;;;;5068410;28;20246;-89
2023/12/01 03:31:36;;;;;;;0.83;0.83;;;1.10;99.90;;;;;;5070454;28;20194;-88
2023/12/01 03:34:04;;;;;;;0.80;0.80;;;1.10;99.90;;;;;;5065138;28;20191;-89
2023/12/01 03:36:30;;;;;;;0.70;0.70;;;1.10;99.90;;;;;;5072225;28;20206;-90
2023/12/01 03:38:55;;;;;;;0.90;0.90;;;1.10;99.90;;;;;;5059550;28;20183;-90
2023/12/01 03:41:21;;;;;;;0.80;0.80;;;1.20;99.90;;;;;;5054720;28;20661;-90
2023/12/01 03:43:46;;;;;;;0.80;0.80;;;1.20;99.90;;;;;;5053617;28;20541;-89
2023/12/01 03:46:12;;;;;;;0.80;0.80;;;1.10;99.90;;;;;;5053593;28;20274;-90
2023/12/01 03:48:37;;;;;;;0.90;0.90;;;1.10;99.90;;;;;;5052155;28;20657;-89
2023/12/01 03:51:03;;;;;;;1.00;1.00;;;1.10;99.90;;;;;;5054035;28;20182;-90
2023/12/01 03:53:32;;;;;;;0.90;0.90;;;1.00;99.90;;;;;;5053695;28;20205;-90
2023/12/01 03:55:58;;;;;;;0.90;0.90;;;1.10;99.90;;;;;;5053086;28;20203;-89
2023/12/01 03:58:24;;;;;;;0.80;0.80;;;1.00;99.90;;;;;;5053569;28;20170;-90
2023/12/01 04:00:53;;;;;;;0.93;0.93;;;1.00;99.90;;;;;;5053561;28;20266;-89
2023/12/01 04:03:19;;;;;;;0.80;0.80;;;1.00;99.90;;;;;;5053431;28;20167;-89
2023/12/01 04:05:46;;;;;;;0.90;0.90;;;1.00;99.90;;;;;;5053463;28;20504;-90
2023/12/01 04:08:11;;;;;;;0.80;0.80;;;1.00;99.90;;;;;;5053970;28;20207;-90
2023/12/01 04:10:37;;;;;;;0.90;0.90;;;1.10;99.90;;;;;;5054388;28;20171;-90
2023/12/01 04:13:07;;;;;;;0.80;0.80;;;1.40;99.90;;;;;;5063468;28;20246;-88
2023/12/01 04:15:34;;;;;;;0.80;0.80;;;1.10;99.90;;;;;;5077392;28;20249;-88
2023/12/01 04:18:06;;;;;;;0.87;0.87;;;1.10;99.90;;;;;;5077842;28;20169;-88
2023/12/01 04:20:36;;;;;;;0.90;0.90;;;1.10;99.90;;;;;;5077824;28;20194;-88
2023/12/01 04:23:09;;;;;;;0.80;0.80;;;1.10;99.90;;;;;;5077590;28;20191;-88
2023/12/01 04:25:38;;;;;;;0.83;0.83;;;1.10;99.90;;;;;;5072448;28;20203;-88
2023/12/01 04:28:05;;;;;;;0.90;0.90;;;1.10;99.90;;;;;;5066570;28;20238;-90
2023/12/01 04:30:31;;;;;;;0.90;0.90;;;1.10;99.90;;;;;;5053849;28;20493;-90
2023/12/01 04:32:57;;;;;;;0.90;0.90;;;1.10;99.90;;;;;;5075958;28;20175;-88
2023/12/01 04:35:25;;;;;;;0.80;0.80;;;1.10;99.90;;;;;;5075258;28;20758;-88
2023/12/01 04:37:51;;;;;;;0.87;0.87;;;1.00;99.90;;;;;;5074045;28;20266;-88
2023/12/01 04:40:17;;;;;;;0.90;0.90;;;0.90;99.90;;;;;;5074390;28;20159;-90
2023/12/01 04:42:51;;;;;;;0.90;0.90;;;0.90;99.90;;;;;;5075903;28;20167;-88
2023/12/01 04:45:21;;;;;;;0.90;0.90;;;0.90;99.90;;;;;;5075036;28;20171;-89
2023/12/01 04:47:51;;;;;;;0.83;0.83;;;0.90;99.90;;;;;;5053645;28;20210;-89
2023/12/01 04:50:26;;;;;;;0.90;0.90;;;0.90;99.90;;;;;;5052914;28;20254;-90
2023/12/01 04:52:53;;;;;;;0.90;0.90;;;1.00;99.90;;;;;;5052970;28;20208;-90
2023/12/01 04:55:21;;;;;;;0.80;0.80;;;0.90;99.90;;;;;;5052972;28;20486;-89
2023/12/01 04:57:47;;;;;;;0.93;0.93;;;1.00;99.90;;;;;;5053156;28;20198;-90
2023/12/01 05:00:21;;;;;;;0.83;0.83;;;1.00;99.90;;;;;;5052231;28;20522;-89
2023/12/01 05:03:00;;;;;;;0.90;0.90;;;1.00;99.90;;;;;;5052490;28;20185;-89
2023/12/01 05:05:36;;;;;;;1.00;1.00;;;1.10;99.90;;;;;;5052613;28;20183;-90
2023/12/01 05:08:05;;;;;;;0.90;0.90;;;1.00;99.90;;;;;;5069500;28;20210;-89
2023/12/01 05:10:32;;;;;;;0.80;0.80;;;1.00;99.90;;;;;;5081148;28;20168;-87
2023/12/01 05:12:59;;;;;;;0.80;0.80;;;1.00;99.90;;;;;;5077693;28;20175;-89
2023/12/01 05:15:30;;;;;;;0.83;0.83;;;1.00;99.90;;;;;;5081199;28;20191;-88
2023/12/01 05:17:59;;;;;;;0.80;0.80;;;1.00;99.90;;;;;;5081184;28;20178;-87
2023/12/01 05:20:27;;;;;;;0.80;0.80;;;1.40;99.90;;;;;;5080921;28;20227;-88
2023/12/01 05:22:55;;;;;;;0.87;0.87;;;1.00;99.90;;;;;;5061048;28;20266;-89
2023/12/01 05:25:25;;;;;;;0.87;0.87;;;1.00;99.90;;;;;;5056631;28;20199;-90
2023/12/01 05:27:57;;;;;;;1.00;1.00;;;1.00;99.90;;;;;;5067577;28;20214;-88
2023/12/01 05:30:25;;;;;;;0.90;0.90;;;0.90;99.90;;;;;;5068339;28;20167;-89
2023/12/01 05:32:52;;;;;;;0.90;0.90;;;0.90;99.90;;;;;;5057531;28;20178;-89
2023/12/01 05:35:18;;;;;;;0.90;0.90;;;1.00;99.90;;;;;;5059321;28;20198;-89
2023/12/01 05:37:48;;;;;;;0.90;0.90;;;1.00;99.90;;;;;;5057588;28;20182;-89
2023/12/01 05:40:20;;;;;;;0.80;0.80;;;1.00;99.90;;;;;;5058889;28;20177;-89
2023/12/01 05:42:47;;;;;;;0.80;0.80;;;1.00;99.90;;;;;;5057118;28;20232;-89
2023/12/01 05:45:14;;;;;;;0.80;0.80;;;1.10;99.90;;;;;;5056520;28;20233;-89
2023/12/01 05:47:45;;;;;;;0.80;0.80;;;1.10;99.90;;;;;;5055995;28;20261;-89
2023/12/01 05:50:16;;;;;;;0.87;0.87;;;1.10;99.90;;;;;;5056849;28;20179;-89
2023/12/01 05:52:42;;;;;;;0.90;0.90;;;1.10;99.90;;;;;;5056070;28;20652;-89
2023/12/01 05:55:15;;;;;;;1.00;1.00;;;1.10;99.90;;;;;;5056754;28;20710;-90
2023/12/01 05:57:45;;;;;;;0.90;0.90;;;1.10;99.90;;;;;;5057555;28;20171;-89
2023/12/01 06:00:12;;;;;;;0.80;0.80;;;1.10;99.90;;;;;;5057238;28;20652;-88
2023/12/01 06:02:40;;;;;;;0.80;0.80;;;1.00;99.90;;;;;;5057375;28;20175;-89
2023/12/01 06:05:06;;;;;;;0.90;0.90;;;1.00;99.90;;;;;;5056916;28;20175;-89
2023/12/01 06:07:32;;;;;;;0.90;0.90;;;1.10;99.90;;;;;;5055318;28;20214;-89
2023/12/01 06:09:58;;;;;;;0.97;0.97;;;1.10;99.90;;;;;;5062517;28;20187;-88
2023/12/01 06:12:24;;;;;;;0.80;0.80;;;1.10;99.90;;;;;;5060220;28;20265;-89
2023/12/01 06:14:49;;;;;;;0.90;0.90;;;1.10;99.90;;;;;;5070521;28;20465;-88
2023/12/01 06:17:15;;;;;;;0.80;0.80;;;1.10;99.90;;;;;;5073528;28;20246;-88
2023/12/01 06:19:40;;;;;;;0.70;0.70;;;1.00;99.90;;;;;;5073780;28;20171;-87
2023/12/01 06:22:07;;;;;;;0.80;0.80;;;1.10;99.90;;;;;;5061382;28;20186;-88
2023/12/01 06:24:33;;;;;;;0.80;0.80;;;1.10;99.90;;;;;;5055800;28;20171;-88
2023/12/01 06:27:00;;;;;;;0.90;0.90;;;1.10;99.90;;;;;;5056063;28;20195;-90
2023/12/01 06:29:26;;;;;;;0.83;0.83;;;1.20;99.90;;;;;;5055954;28;20168;-90
2023/12/01 06:31:51;;;;;;;0.80;0.80;;;1.20;99.90;;;;;;5056407;28;20176;-87
2023/12/01 06:34:17;;;;;;;0.90;0.90;;;1.20;99.90;;;;;;5055338;28;20244;-89
2023/12/01 06:36:43;;;;;;;0.80;0.80;;;1.10;99.90;;;;;;5055164;28;20191;-88
2023/12/01 06:39:10;;;;;;;0.90;0.90;;;1.00;99.90;;;;;;5055645;28;20171;-88
2023/12/01 06:41:41;;;;;;;0.90;0.90;;;1.10;99.90;;;;;;5055041;28;20730;-88
2023/12/01 06:44:10;;;;;;;0.90;0.90;;;1.10;99.90;;;;;;5054679;28;20681;-88
2023/12/01 06:46:35;;;;;;;0.93;0.93;;;1.10;99.90;;;;;;5054178;28;20195;-87
2023/12/01 06:49:01;;;;;;;0.90;0.90;;;1.10;99.90;;;;;;5058048;28;20297;-89
2023/12/01 06:51:26;;;;;;;0.80;0.80;;;1.10;99.90;;;;;;5055255;28;20217;-89
2023/12/01 06:53:52;;;;;;;0.90;0.90;;;1.10;99.90;;;;;;5056629;28;20179;-87
2023/12/01 06:56:18;;;;;;;0.90;0.90;;;1.10;99.90;;;;;;5055462;28;20277;-88
2023/12/01 06:58:43;;;;;;;0.90;0.90;;;1.10;99.90;;;;;;5057115;28;20175;-83
2023/12/01 07:01:18;;;;;;;0.90;0.90;;;1.10;99.90;;;;;;5055470;28;20178;-88
2023/12/01 07:03:46;;;;;;;0.90;0.90;;;1.10;99.90;;;;;;5053676;28;20171;-89
2023/12/01 07:06:13;;;;;;;0.90;0.90;;;1.00;99.90;;;;;;5056425;28;20282;-87
2023/12/01 07:08:39;;;;;;;0.90;0.90;;;0.40;99.90;;;;;;5046781;28;20266;-85
2023/12/01 07:11:05;;;;;;;0.90;0.90;;;1.00;99.90;;;;;;5034294;28;20172;-88
2023/12/01 07:13:30;;;;;;;0.90;0.90;;;1.00;99.90;;;;;;5032808;28;20607;-87
2023/12/01 07:15:57;;;;;;;0.90;0.90;;;1.00;99.90;;;;;;5035573;28;20200;-86
2023/12/01 07:18:23;;;;;;;0.80;0.80;;;0.90;99.90;;;;;;5036739;28;20711;-85
2023/12/01 07:20:49;;;;;;;1.00;1.00;;;1.00;99.90;;;;;;5037299;28;20556;-86
2023/12/01 07:23:17;;;;;;;0.97;0.97;;;0.90;99.90;;;;;;5037051;28;20188;-85
2023/12/01 07:25:47;;;;;;;0.90;0.90;;;1.00;99.90;;;;;;5034602;28;20619;-85
2023/12/01 07:28:13;;;;;;;0.80;0.80;;;0.90;99.90;;;;;;5037495;28;20314;-87
2023/12/01 07:30:41;;;;;;;0.90;0.90;;;0.80;99.90;;;;;;5032478;28;20172;-86
2023/12/01 07:33:08;;;;;;;0.90;0.90;;;0.80;99.90;;;;;;5029781;28;20176;-87
2023/12/01 07:35:34;;;;;;;0.87;0.87;;;0.80;99.90;;;;;;5025545;28;20223;-87
2023/12/01 07:38:00;;;;;;;0.80;0.80;;;0.90;99.90;;;;;;5029147;28;20175;-87
2023/12/01 07:40:27;;;;;;;0.90;0.90;;;1.00;99.90;;;;;;5028401;28;20164;-87
2023/12/01 07:42:57;;;;;;;1.00;1.00;;;0.90;99.90;;;;;;5028262;28;20172;-86
2023/12/01 07:45:24;;;;;;;0.90;0.90;;;0.90;99.90;;;;;;5028823;28;20633;-87
2023/12/01 07:47:52;;;;;;;0.90;0.90;;;0.90;99.90;;;;;;5037347;28;20206;-88
2023/12/01 07:50:19;;;;;;;0.97;0.97;;;0.90;99.90;;;;;;5036241;28;20667;-85
2023/12/01 07:52:46;;;;;;;0.90;0.90;;;0.90;99.90;;;;;;5037083;28;20192;-86
2023/12/01 07:55:12;;;;;;;0.90;0.90;;;0.80;99.90;;;;;;5033592;28;20190;-86
2023/12/01 07:57:38;;;;;;;0.90;0.90;;;0.80;99.90;;;;;;5017206;28;20207;-86
2023/12/01 08:00:16;;;;;;;0.83;0.83;;;0.80;99.90;;;;;;5016573;28;20180;-87
2023/12/01 08:02:46;;;;;;;0.90;0.90;;;0.80;99.90;;;;;;5018177;28;20227;-82
2023/12/01 08:05:15;;;;;;;0.90;0.90;;;0.90;99.90;;;;;;5035922;28;20383;-84
2023/12/01 08:07:45;;;;;;;0.90;0.90;;;0.90;99.90;;;;;;5037100;28;20215;-83
2023/12/01 08:10:15;;;;;;;0.90;0.90;;;0.80;99.90;;;;;;5033326;28;20216;-84
2023/12/01 08:12:44;;;;;;;0.80;0.80;;;0.80;99.90;;;;;;5037202;28;20157;-81
2023/12/01 08:15:10;;;;;;;0.90;0.90;;;0.90;99.90;;;;;;5036496;28;20161;-84
2023/12/01 08:17:39;;;;;;;0.93;0.93;;;1.00;99.90;;;;;;5039322;28;20191;-86
2023/12/01 08:20:06;;;;;;;0.80;0.80;;;1.00;99.90;;;;;;5037046;28;20180;-85
2023/12/01 08:22:32;;;;;;;0.90;0.90;;;1.00;99.90;;;;;;5035980;28;20677;-83
2023/12/01 08:24:58;;;;;;;0.90;0.90;;;1.10;99.90;;;;;;5035961;28;20225;-87
2023/12/01 08:27:24;;;;;;;0.80;0.80;;;1.20;99.90;;;;;;5035593;28;20204;-86
2023/12/01 08:29:51;;;;;;;0.90;0.90;;;1.20;99.90;;;;;;5034648;28;20222;-85
2023/12/01 08:32:16;;;;;;;0.80;0.80;;;1.40;99.90;;;;;;5034403;28;20219;-85
2023/12/01 08:34:42;;;;;;;0.80;0.80;;;1.20;99.90;;;;;;5044698;28;20210;-82
2023/12/01 08:37:08;;;;;;;0.90;0.90;;;1.60;99.90;;;;;;5056671;28;20230;-82
2023/12/01 08:39:34;;;;;;;0.80;0.80;;;1.50;99.90;;;;;;5057069;28;20180;-82
2023/12/01 08:41:59;;;;;;;0.80;0.80;;;1.30;99.90;;;;;;5056320;28;20243;-83
2023/12/01 08:44:25;;;;;;;0.80;0.80;;;1.40;99.90;;;;;;5056142;28;20164;-82
2023/12/01 08:46:51;;;;;;;0.83;0.83;;;1.40;99.90;;;;;;5043762;28;20210;-83
2023/12/01 08:49:16;;;;;;;0.90;0.90;;;1.40;99.90;;;;;;5033651;28;20223;-82
2023/12/01 08:51:42;;;;;;;0.80;0.80;;;1.90;99.90;;;;;;5034607;28;20310;-82
2023/12/01 08:54:07;;;;;;;0.80;0.80;;;1.50;99.90;;;;;;5032901;28;20333;-84
2023/12/01 08:56:34;;;;;;;0.90;0.90;;;1.50;99.90;;;;;;5034294;28;20215;-85
2023/12/01 08:59:00;;;;;;;0.80;0.80;;;1.50;99.90;;;;;;5035947;28;20233;-85
2023/12/01 09:01:26;;;;;;;0.90;0.90;;;1.40;99.90;;;;;;5035730;28;20187;-87
2023/12/01 09:03:52;;;;;;;0.90;0.90;;;1.30;99.90;;;;;;5034369;28;20172;-84
2023/12/01 09:06:17;;;;;;;0.90;0.90;;;1.50;99.90;;;;;;5033952;28;20207;-85
2023/12/01 09:08:43;;;;;;;0.87;0.87;;;1.40;99.90;;;;;;5034597;28;20215;-84
2023/12/01 09:11:09;;;;;;;0.80;0.80;;;1.60;99.90;;;;;;5034620;28;20225;-83
2023/12/01 09:13:36;;;;;;;0.80;0.80;;;1.70;99.90;;;;;;5034711;28;20190;-84
2023/12/01 09:16:02;;;;;;;0.80;0.80;;;1.70;99.90;;;;;;5034168;28;20657;-86
2023/12/01 09:18:29;;;;;;;0.80;0.80;;;1.70;99.90;;;;;;5036559;28;20180;-85
2023/12/01 09:20:55;;;;;;;0.70;0.70;;;1.80;99.90;;;;;;5035368;28;20175;-85
2023/12/01 09:23:20;;;;;;;0.80;0.80;;;1.70;99.90;;;;;;5036736;28;20195;-85
2023/12/01 09:25:46;;;;;;;0.80;0.80;;;1.70;99.90;;;;;;5036105;28;20214;-85
2023/12/01 09:28:12;;;;;;;0.80;0.80;;;1.70;99.90;;;;;;5037292;28;20935;-85
2023/12/01 09:30:38;;;;;;;0.90;0.90;;;1.70;99.90;;;;;;5037843;28;20653;-85
2023/12/01 09:33:04;;;;;;;0.80;0.80;;;1.70;99.90;;;;;;5036191;28;20168;-84
2023/12/01 09:35:30;;;;;;;0.70;0.70;;;1.80;99.90;;;;;;5033324;28;20222;-85
2023/12/01 09:37:56;;;;;;;0.70;0.70;;;1.90;99.90;;;;;;5036547;28;20179;-84
2023/12/01 09:40:22;;;;;;;0.80;0.80;;;1.90;99.90;;;;;;5022017;28;20270;-85
2023/12/01 09:42:49;;;;;;;0.80;0.80;;;2.00;99.90;;;;;;5034334;28;20198;-85
2023/12/01 09:45:22;;;;;;;0.73;0.73;;;1.90;99.90;;;;;;5034465;28;20278;-86
2023/12/01 09:48:09;;;;;;;0.77;0.77;;;1.80;99.90;;;;;;5035192;28;20192;-84
2023/12/01 09:50:35;;;;;;;0.80;0.80;;;1.80;99.90;;;;;;5035726;28;20187;-84
2023/12/01 09:53:02;;;;;;;0.70;0.70;;;1.80;99.90;;;;;;5036918;28;20172;-84
2023/12/01 09:55:29;;;;;;;0.70;0.70;;;1.70;99.90;;;;;;5039205;28;20280;-86
2023/12/01 09:57:56;;;;;;;0.80;0.80;;;1.80;99.90;;;;;;5037190;28;20203;-86
2023/12/01 10:00:23;;;;;;;0.80;0.80;;;1.60;99.90;;;;;;5036893;28;20226;-86
2023/12/01 10:02:49;;;;;;;0.90;0.90;;;1.70;99.90;;;;;;5038429;28;20207;-84
2023/12/01 10:05:18;;;;;;;0.80;0.80;;;1.70;99.90;;;;;;5038447;28;20263;-84
2023/12/01 10:07:44;;;;;;;0.70;0.70;;;1.70;99.90;;;;;;5041013;28;20215;-85
2023/12/01 10:10:24;;;;;;;0.77;0.77;;;1.80;99.90;;;;;;5053055;28;20168;-84
2023/12/01 10:12:55;;;;;;;0.77;0.77;;;1.90;99.90;;;;;;5052198;28;20187;-85
2023/12/01 10:15:21;;;;;;;0.80;0.80;;;1.90;99.90;;;;;;5043429;28;20188;-85
2023/12/01 10:17:46;;;;;;;0.80;0.80;;;2.00;99.90;;;;;;5037311;28;20646;-85
2023/12/01 10:20:18;;;;;;;0.70;0.70;;;2.20;99.90;;;;;;5039672;28;20192;-84
2023/12/01 10:22:47;;;;;;;0.80;0.80;;;2.10;99.90;;;;;;5055254;28;20195;-86
2023/12/01 10:25:13;;;;;;;0.80;0.80;;;2.10;99.90;;;;;;5052395;28;20218;-86
2023/12/01 10:27:42;;;;;;;0.70;0.70;;;2.20;99.90;;;;;;5053861;28;20192;-85
2023/12/01 10:30:14;;;;;;;0.70;0.70;;;2.20;99.90;;;;;;5043725;28;20959;-86
2023/12/01 10:32:43;;;;;;;0.70;0.70;;;2.00;99.90;;;;;;5033539;28;20187;-86
2023/12/01 10:35:09;;;;;;;0.90;0.90;;;2.00;99.90;;;;;;5033952;28;20199;-85
2023/12/01 10:37:36;;;;;;;0.80;0.80;;;2.00;99.90;;;;;;5032965;28;20642;-87
2023/12/01 10:40:05;;;;;;;0.80;0.80;;;1.90;99.90;;;;;;5035122;28;20175;-86
2023/12/01 10:42:34;;;;;;;0.80;0.80;;;1.80;99.90;;;;;;5035006;28;20576;-86
2023/12/01 10:45:04;;;;;;;0.90;0.90;;;1.70;99.90;;;;;;5023443;28;20676;-86
2023/12/01 10:47:32;;;;;;;0.90;0.90;;;1.80;99.90;;;;;;5033286;28;20208;-84
2023/12/01 10:49:58;;;;;;;0.80;0.80;;;1.70;99.90;;;;;;5034441;28;20188;-87
2023/12/01 10:52:25;;;;;;;0.90;0.90;;;1.60;99.90;;;;;;5032666;28;20188;-88
2023/12/01 10:54:51;;;;;;;0.90;0.90;;;1.40;99.90;;;;;;5033765;28;20803;-86
2023/12/01 10:57:44;;;;;;;0.90;0.90;;;1.50;99.90;;;;;;5033065;28;20703;-87
2023/12/01 11:00:29;;;;;;;0.80;0.80;;;1.50;99.90;;;;;;5023268;28;20194;-85
2023/12/01 11:02:58;;;;;;;0.90;0.90;;;1.50;99.90;;;;;;5034230;28;20211;-87
2023/12/01 11:05:26;;;;;;;0.80;0.80;;;1.40;99.90;;;;;;5035110;28;20219;-86
2023/12/01 11:08:06;;;;;;;0.80;0.80;;;1.40;99.90;;;;;;5033893;28;20206;-87
2023/12/01 11:10:49;;;;;;;0.80;0.80;;;1.40;99.90;;;;;;5036875;28;20179;-84
2023/12/01 11:13:31;;;;;;;0.87;0.87;;;1.50;99.90;;;;;;5036646;28;20180;-88
2023/12/01 11:15:59;;;;;;;0.90;0.90;;;1.50;99.90;;;;;;5035678;28;20605;-87
2023/12/01 11:18:25;;;;;;;0.90;0.90;;;1.30;99.90;;;;;;5035642;28;20183;-85
2023/12/01 11:20:52;;;;;;;0.80;0.80;;;1.50;99.90;;;;;;5033584;28;20214;-87
2023/12/01 11:23:22;;;;;;;0.87;0.87;;;1.40;99.90;;;;;;5037186;28;20203;-89
2023/12/01 11:25:55;;;;;;;0.80;0.80;;;1.40;99.90;;;;;;5036595;28;20196;-86
2023/12/01 11:28:42;;;;;;;0.80;0.80;;;1.50;99.90;;;;;;5039716;28;20204;-86
2023/12/01 11:31:14;;;;;;;0.90;0.90;;;1.60;99.90;;;;;;5039658;28;20269;-87
2023/12/01 11:33:50;;;;;;;0.80;0.80;;;1.50;99.90;;;;;;5028351;28;20180;-86
2023/12/01 11:36:29;;;;;;;0.80;0.80;;;1.40;99.90;;;;;;5033283;28;20195;-87
2023/12/01 11:39:08;;;;;;;1.00;1.00;;;1.30;99.90;;;;;;5031336;28;20664;-87
2023/12/01 11:41:34;;;;;;;0.90;0.90;;;1.30;99.90;;;;;;5037606;28;20168;-86
2023/12/01 11:44:07;;;;;;;1.00;1.00;;;1.30;99.90;;;;;;5042150;28;20190;-87
2023/12/01 11:46:43;;;;;;;0.90;0.90;;;1.40;99.90;;;;;;5037960;28;20187;-86
2023/12/01 11:49:14;;;;;;;0.80;0.80;;;1.30;99.90;;;;;;5030246;28;20191;-87
2023/12/01 11:51:43;;;;;;;0.90;0.90;;;1.40;99.90;;;;;;5037248;28;20548;-84
2023/12/01 11:54:11;;;;;;;0.80;0.80;;;1.50;99.90;;;;;;5037790;28;20195;-88
2023/12/01 11:56:36;;;;;;;0.90;0.90;;;1.70;99.90;;;;;;5026608;28;20196;-88
2023/12/01 11:59:02;;;;;;;0.90;0.90;;;1.70;99.90;;;;;;5025108;28;20183;-88
2023/12/01 12:01:31;;;;;;;0.93;0.93;;;1.60;99.90;;;;;;5040010;28;20179;-88
2023/12/01 12:03:58;;;;;;;0.90;0.90;;;1.60;99.90;;;;;;5054105;28;20172;-86
2023/12/01 12:06:24;;;;;;;0.90;0.90;;;1.60;99.90;;;;;;5056002;28;20188;-86
2023/12/01 12:08:54;;;;;;;0.87;0.87;;;1.60;99.90;;;;;;5057765;28;20230;-90
2023/12/01 12:11:23;;;;;;;0.87;0.87;;;1.60;99.90;;;;;;5057814;28;20188;-88
2023/12/01 12:13:55;;;;;;;0.87;0.87;;;1.60;99.90;;;;;;5058110;28;20192;-87
2023/12/01 12:16:21;;;;;;;1.00;1.00;;;1.60;99.90;;;;;;5057956;28;20215;-87
2023/12/01 12:18:50;;;;;;;0.90;0.90;;;1.50;99.90;;;;;;5058125;28;20191;-88
2023/12/01 12:21:16;;;;;;;0.80;0.80;;;1.40;99.90;;;;;;5055688;28;20187;-88
2023/12/01 12:23:41;;;;;;;0.80;0.80;;;1.40;99.90;;;;;;5035236;28;20180;-87
2023/12/01 12:26:14;;;;;;;0.90;0.90;;;1.30;99.90;;;;;;5035735;28;20285;-87
2023/12/01 12:28:41;;;;;;;0.90;0.90;;;1.40;99.90;;;;;;5035153;28;20311;-90
2023/12/01 12:31:07;;;;;;;0.90;0.90;;;1.40;99.90;;;;;;5035107;28;20210;-88
2023/12/01 12:33:35;;;;;;;1.00;1.00;;;1.40;99.90;;;;;;5036579;28;20645;-87
2023/12/01 12:36:01;;;;;;;0.90;0.90;;;1.30;99.90;;;;;;5035314;28;20205;-89
2023/12/01 12:38:27;;;;;;;0.90;0.90;;;1.30;99.90;;;;;;5035169;28;20275;-87
2023/12/01 12:40:53;;;;;;;0.80;0.80;;;1.30;99.90;;;;;;5035001;28;20203;-87
2023/12/01 12:43:20;;;;;;;0.83;0.83;;;1.30;99.90;;;;;;5036774;28;20645;-88
2023/12/01 12:45:49;;;;;;;0.90;0.90;;;1.40;99.90;;;;;;5035058;28;20602;-90
2023/12/01 12:48:14;;;;;;;0.80;0.80;;;1.30;99.90;;;;;;5017722;28;20584;-88
2023/12/01 12:50:46;;;;;;;0.90;0.90;;;1.40;99.90;;;;;;5035200;28;20175;-88
2023/12/01 12:53:14;;;;;;;0.90;0.90;;;1.50;99.90;;;;;;5035745;28;20186;-88
2023/12/01 12:55:39;;;;;;;0.80;0.80;;;1.50;99.90;;;;;;5035931;28;20192;-88
2023/12/01 12:58:05;;;;;;;0.80;0.80;;;1.50;99.90;;;;;;5034766;28;20712;-88
2023/12/01 13:00:31;;;;;;;0.90;0.90;;;1.60;99.90;;;;;;5036480;28;20188;-88